sensor_id;sensor_type;location;lat;lon;timestamp;pressure;altitude;pressure_sealevel;temperature;humidity
51083;BME280;37131;42.694;23.350;2022-09-13T00:00:30;95305.84;;;14.74;74.50
51083;BME280;37131;42.694;23.350;2022-09-13T00:02:56;95303.84;;;14.86;75.03
51083;BME280;37131;42.694;23.350;2022-09-13T00:05:21;95307.38;;;14.70;77.59
51083;BME280;37131;42.694;23.350;2022-09-13T00:07:47;95295.38;;;14.52;78.19
51083;BME280;37131;42.694;23.350;2022-09-13T00:10:12;95288.28;;;14.52;77.33
51083;BME280;37131;42.694;23.350;2022-09-13T00:12:38;95281.28;;;14.58;78.29
51083;BME280;37131;42.694;23.350;2022-09-13T00:15:03;95290.59;;;14.71;77.63
51083;BME280;37131;42.694;23.350;2022-09-13T00:17:29;95274.91;;;14.76;76.51
51083;BME280;37131;42.694;23.350;2022-09-13T00:19:54;95283.84;;;14.80;77.74
51083;BME280;37131;42.694;23.350;2022-09-13T00:22:20;95270.53;;;14.60;77.33
51083;BME280;37131;42.694;23.350;2022-09-13T00:24:45;95277.06;;;14.84;76.61
51083;BME280;37131;42.694;23.350;2022-09-13T00:27:12;95285.28;;;14.93;76.27
51083;BME280;37131;42.694;23.350;2022-09-13T00:29:37;95275.75;;;14.82;77.78
51083;BME280;37131;42.694;23.350;2022-09-13T00:32:03;95271.38;;;14.93;76.08
51083;BME280;37131;42.694;23.350;2022-09-13T00:34:30;95282.91;;;14.91;75.26
51083;BME280;37131;42.694;23.350;2022-09-13T00:36:56;95273.03;;;15.04;75.12
51083;BME280;37131;42.694;23.350;2022-09-13T00:39:22;95267.41;;;14.90;77.11
51083;BME280;37131;42.694;23.350;2022-09-13T00:41:47;95278.34;;;15.14;76.99
51083;BME280;37131;42.694;23.350;2022-09-13T00:47:09;95273.34;;;15.07;75.67
51083;BME280;37131;42.694;23.350;2022-09-13T00:49:39;95189.94;;;14.55;76.27
51083;BME280;37131;42.694;23.350;2022-09-13T00:52:12;95268.75;;;15.30;74.27
51083;BME280;37131;42.694;23.350;2022-09-13T00:54:48;95267.47;;;15.38;74.52
51083;BME280;37131;42.694;23.350;2022-09-13T00:57:19;95271.41;;;15.35;74.88
51083;BME280;37131;42.694;23.350;2022-09-13T00:59:59;95264.34;;;15.41;73.80
51083;BME280;37131;42.694;23.350;2022-09-13T01:02:28;95269.84;;;15.34;73.53
51083;BME280;37131;42.694;23.350;2022-09-13T01:04:54;95265.41;;;15.45;73.21
51083;BME280;37131;42.694;23.350;2022-09-13T01:07:20;95260.47;;;15.49;74.02
51083;BME280;37131;42.694;23.350;2022-09-13T01:09:47;95266.78;;;15.53;75.07
51083;BME280;37131;42.694;23.350;2022-09-13T01:12:43;95266.97;;;15.41;74.26
51083;BME280;37131;42.694;23.350;2022-09-13T01:15:12;95269.16;;;15.54;74.27
51083;BME280;37131;42.694;23.350;2022-09-13T01:17:38;95261.25;;;15.49;76.19
51083;BME280;37131;42.694;23.350;2022-09-13T01:20:05;95261.25;;;15.49;72.90
51083;BME280;37131;42.694;23.350;2022-09-13T01:23:21;95262.31;;;15.53;73.79
51083;BME280;37131;42.694;23.350;2022-09-13T01:31:35;95259.91;;;15.41;76.46
51083;BME280;37131;42.694;23.350;2022-09-13T01:48:33;95248.72;;;15.67;71.16
51083;BME280;37131;42.694;23.350;2022-09-13T01:57:11;95249.47;;;15.57;72.77
51083;BME280;37131;42.694;23.350;2022-09-13T02:02:30;95245.16;;;15.40;73.33
51083;BME280;37131;42.694;23.350;2022-09-13T02:05:15;95241.06;;;15.60;73.19
51083;BME280;37131;42.694;23.350;2022-09-13T02:07:49;95245.47;;;15.49;72.86
51083;BME280;37131;42.694;23.350;2022-09-13T02:10:25;95244.78;;;15.21;74.64
51083;BME280;37131;42.694;23.350;2022-09-13T02:12:54;95139.19;;;14.71;72.96
51083;BME280;37131;42.694;23.350;2022-09-13T02:15:25;95193.25;;;15.10;74.79
51083;BME280;37131;42.694;23.350;2022-09-13T02:18:00;95245.63;;;15.27;73.82
51083;BME280;37131;42.694;23.350;2022-09-13T02:20:31;95239.03;;;15.24;75.57
51083;BME280;37131;42.694;23.350;2022-09-13T02:23:02;95241.22;;;15.38;73.65
51083;BME280;37131;42.694;23.350;2022-09-13T02:25:32;95242.22;;;15.26;73.81
51083;BME280;37131;42.694;23.350;2022-09-13T02:28:02;95238.69;;;15.11;76.63
51083;BME280;37131;42.694;23.350;2022-09-13T02:30:30;95237.16;;;15.20;74.44
51083;BME280;37131;42.694;23.350;2022-09-13T02:33:03;95245.66;;;14.95;76.68
51083;BME280;37131;42.694;23.350;2022-09-13T02:35:37;95221.25;;;14.94;74.85
51083;BME280;37131;42.694;23.350;2022-09-13T02:38:09;95240.47;;;15.05;76.45
51083;BME280;37131;42.694;23.350;2022-09-13T02:40:48;95248.72;;;14.86;78.79
51083;BME280;37131;42.694;23.350;2022-09-13T02:43:26;95242.28;;;14.67;77.25
51083;BME280;37131;42.694;23.350;2022-09-13T02:49:04;95246.19;;;14.64;79.27
51083;BME280;37131;42.694;23.350;2022-09-13T02:54:37;95248.66;;;14.76;77.46
51083;BME280;37131;42.694;23.350;2022-09-13T02:57:12;95248.88;;;14.69;78.15
51083;BME280;37131;42.694;23.350;2022-09-13T02:59:39;95247.63;;;14.50;79.46
51083;BME280;37131;42.694;23.350;2022-09-13T03:02:08;95206.13;;;14.14;79.96
51083;BME280;37131;42.694;23.350;2022-09-13T03:04:35;95248.19;;;14.57;79.34
51083;BME280;37131;42.694;23.350;2022-09-13T03:07:01;95243.56;;;14.37;78.60
51083;BME280;37131;42.694;23.350;2022-09-13T03:09:30;95258.00;;;14.62;77.20
51083;BME280;37131;42.694;23.350;2022-09-13T03:12:20;95260.81;;;14.33;79.55
51083;BME280;37131;42.694;23.350;2022-09-13T03:17:52;95259.06;;;14.38;81.06
51083;BME280;37131;42.694;23.350;2022-09-13T03:25:58;95258.22;;;14.33;80.08
51083;BME280;37131;42.694;23.350;2022-09-13T03:31:19;95257.75;;;14.14;82.91
51083;BME280;37131;42.694;23.350;2022-09-13T03:33:58;95254.84;;;14.10;83.59
51083;BME280;37131;42.694;23.350;2022-09-13T03:36:48;95253.41;;;14.25;81.78
51083;BME280;37131;42.694;23.350;2022-09-13T03:39:36;95251.63;;;14.30;81.12
51083;BME280;37131;42.694;23.350;2022-09-13T03:42:15;95240.81;;;13.99;81.84
51083;BME280;37131;42.694;23.350;2022-09-13T03:44:45;95257.09;;;14.01;82.35
51083;BME280;37131;42.694;23.350;2022-09-13T03:47:13;95258.00;;;14.12;82.46
51083;BME280;37131;42.694;23.350;2022-09-13T03:49:40;95267.44;;;14.13;83.74
51083;BME280;37131;42.694;23.350;2022-09-13T03:52:05;95257.09;;;14.01;83.90
51083;BME280;37131;42.694;23.350;2022-09-13T03:54:36;95249.41;;;13.95;82.25
51083;BME280;37131;42.694;23.350;2022-09-13T03:57:15;95257.13;;;14.07;82.94
51083;BME280;37131;42.694;23.350;2022-09-13T03:59:59;95262.34;;;14.01;83.08
51083;BME280;37131;42.694;23.350;2022-09-13T04:02:25;95266.88;;;14.11;81.05
51083;BME280;37131;42.694;23.350;2022-09-13T04:04:51;95265.19;;;14.22;79.93
51083;BME280;37131;42.694;23.350;2022-09-13T04:07:22;95263.09;;;14.24;81.26
51083;BME280;37131;42.694;23.350;2022-09-13T04:09:47;95263.56;;;13.94;83.14
51083;BME280;37131;42.694;23.350;2022-09-13T04:12:14;95273.34;;;14.03;81.58
51083;BME280;37131;42.694;23.350;2022-09-13T04:14:40;95266.47;;;13.97;82.01
51083;BME280;37131;42.694;23.350;2022-09-13T04:17:05;95269.50;;;13.89;83.65
51083;BME280;37131;42.694;23.350;2022-09-13T04:19:31;95266.59;;;14.08;80.47
51083;BME280;37131;42.694;23.350;2022-09-13T04:21:57;95272.22;;;13.55;85.44
51083;BME280;37131;42.694;23.350;2022-09-13T04:24:25;95267.00;;;13.55;86.82
51083;BME280;37131;42.694;23.350;2022-09-13T04:26:51;95269.38;;;13.57;86.48
51083;BME280;37131;42.694;23.350;2022-09-13T04:29:17;95268.91;;;13.60;85.57
51083;BME280;37131;42.694;23.350;2022-09-13T04:31:44;95266.44;;;13.53;86.41
51083;BME280;37131;42.694;23.350;2022-09-13T04:34:10;95277.22;;;13.57;86.05
51083;BME280;37131;42.694;23.350;2022-09-13T04:36:35;95273.66;;;13.63;85.61
51083;BME280;37131;42.694;23.350;2022-09-13T04:39:01;95262.50;;;13.33;87.38
51083;BME280;37131;42.694;23.350;2022-09-13T04:41:27;95282.44;;;13.74;83.15
51083;BME280;37131;42.694;23.350;2022-09-13T04:43:53;95285.91;;;13.40;88.28
51083;BME280;37131;42.694;23.350;2022-09-13T04:46:18;95298.84;;;13.13;89.68
51083;BME280;37131;42.694;23.350;2022-09-13T04:48:50;95299.25;;;13.39;89.38
51083;BME280;37131;42.694;23.350;2022-09-13T04:51:16;95298.19;;;13.57;88.27
51083;BME280;37131;42.694;23.350;2022-09-13T04:53:43;95303.59;;;13.33;89.22
51083;BME280;37131;42.694;23.350;2022-09-13T04:56:09;95305.22;;;13.34;89.21
51083;BME280;37131;42.694;23.350;2022-09-13T04:58:35;95304.41;;;13.33;88.04
51083;BME280;37131;42.694;23.350;2022-09-13T05:01:02;95306.63;;;13.42;89.52
51083;BME280;37131;42.694;23.350;2022-09-13T05:03:32;95293.06;;;13.28;88.67
51083;BME280;37131;42.694;23.350;2022-09-13T05:06:06;95302.97;;;13.43;88.79
51083;BME280;37131;42.694;23.350;2022-09-13T05:08:32;95307.25;;;13.49;89.44
51083;BME280;37131;42.694;23.350;2022-09-13T05:10:57;95300.75;;;13.51;88.86
51083;BME280;37131;42.694;23.350;2022-09-13T05:13:24;95300.06;;;13.39;91.22
51083;BME280;37131;42.694;23.350;2022-09-13T05:15:54;95295.34;;;13.58;89.24
51083;BME280;37131;42.694;23.350;2022-09-13T05:18:20;95295.13;;;13.82;86.80
51083;BME280;37131;42.694;23.350;2022-09-13T05:20:45;95293.53;;;13.81;87.20
51083;BME280;37131;42.694;23.350;2022-09-13T05:23:11;95280.19;;;14.04;84.08
51083;BME280;37131;42.694;23.350;2022-09-13T05:25:36;95295.84;;;14.21;84.61
51083;BME280;37131;42.694;23.350;2022-09-13T05:28:01;95287.31;;;14.09;81.92
51083;BME280;37131;42.694;23.350;2022-09-13T05:30:27;95294.78;;;14.17;79.50
51083;BME280;37131;42.694;23.350;2022-09-13T05:32:52;95299.66;;;14.36;78.50
51083;BME280;37131;42.694;23.350;2022-09-13T05:35:18;95299.16;;;14.61;79.45
51083;BME280;37131;42.694;23.350;2022-09-13T05:37:43;95295.50;;;14.62;78.87
51083;BME280;37131;42.694;23.350;2022-09-13T05:40:09;95298.66;;;14.64;76.83
51083;BME280;37131;42.694;23.350;2022-09-13T05:42:34;95286.53;;;14.85;75.94
51083;BME280;37131;42.694;23.350;2022-09-13T05:45:00;95294.88;;;15.09;74.60
51083;BME280;37131;42.694;23.350;2022-09-13T05:47:25;95301.53;;;15.22;73.32
51083;BME280;37131;42.694;23.350;2022-09-13T05:49:51;95294.69;;;15.21;75.59
51083;BME280;37131;42.694;23.350;2022-09-13T05:52:16;95249.41;;;15.04;74.15
51083;BME280;37131;42.694;23.350;2022-09-13T05:54:41;95300.06;;;15.37;71.14
51083;BME280;37131;42.694;23.350;2022-09-13T05:57:07;95294.38;;;15.55;72.49
51083;BME280;37131;42.694;23.350;2022-09-13T05:59:32;95295.75;;;15.63;71.55
51083;BME280;37131;42.694;23.350;2022-09-13T06:01:58;95286.50;;;15.50;71.17
51083;BME280;37131;42.694;23.350;2022-09-13T06:04:23;95291.06;;;15.70;71.53
51083;BME280;37131;42.694;23.350;2022-09-13T06:06:49;95292.47;;;15.46;70.70
51083;BME280;37131;42.694;23.350;2022-09-13T06:09:14;95290.34;;;15.42;70.99
51083;BME280;37131;42.694;23.350;2022-09-13T06:11:40;95305.41;;;15.52;72.06
51083;BME280;37131;42.694;23.350;2022-09-13T06:14:05;95305.41;;;15.57;73.31
51083;BME280;37131;42.694;23.350;2022-09-13T06:16:31;95223.75;;;15.16;70.81
51083;BME280;37131;42.694;23.350;2022-09-13T06:18:57;95308.09;;;15.63;70.40
51083;BME280;37131;42.694;23.350;2022-09-13T06:21:23;95311.06;;;15.76;70.55
51083;BME280;37131;42.694;23.350;2022-09-13T06:23:50;95321.94;;;15.48;71.77
51083;BME280;37131;42.694;23.350;2022-09-13T06:26:18;95306.59;;;15.77;71.93
51083;BME280;37131;42.694;23.350;2022-09-13T06:28:48;95314.38;;;15.61;71.11
51083;BME280;37131;42.694;23.350;2022-09-13T06:31:16;95318.53;;;15.52;71.33
51083;BME280;37131;42.694;23.350;2022-09-13T06:33:43;95317.59;;;15.69;71.83
51083;BME280;37131;42.694;23.350;2022-09-13T06:36:14;95298.56;;;15.51;70.67
51083;BME280;37131;42.694;23.350;2022-09-13T06:38:40;95301.13;;;15.78;69.39
51083;BME280;37131;42.694;23.350;2022-09-13T06:41:14;95316.91;;;15.78;68.78
51083;BME280;37131;42.694;23.350;2022-09-13T06:43:43;95323.66;;;15.74;68.85
51083;BME280;37131;42.694;23.350;2022-09-13T06:46:13;95321.19;;;16.00;70.12
51083;BME280;37131;42.694;23.350;2022-09-13T06:48:41;95324.94;;;16.09;69.09
51083;BME280;37131;42.694;23.350;2022-09-13T06:51:10;95333.34;;;16.06;69.12
51083;BME280;37131;42.694;23.350;2022-09-13T06:53:37;95328.16;;;16.32;67.96
51083;BME280;37131;42.694;23.350;2022-09-13T06:56:15;95284.84;;;15.87;68.26
51083;BME280;37131;42.694;23.350;2022-09-13T06:58:43;95334.53;;;16.46;67.90
51083;BME280;37131;42.694;23.350;2022-09-13T07:01:20;95336.28;;;16.15;67.49
51083;BME280;37131;42.694;23.350;2022-09-13T07:03:56;95330.56;;;16.39;67.74
51083;BME280;37131;42.694;23.350;2022-09-13T07:06:24;95335.97;;;16.11;67.24
51083;BME280;37131;42.694;23.350;2022-09-13T07:08:52;95340.19;;;16.12;66.92
51083;BME280;37131;42.694;23.350;2022-09-13T07:11:19;95341.03;;;16.23;65.92
51083;BME280;37131;42.694;23.350;2022-09-13T07:13:56;95347.44;;;16.48;66.20
51083;BME280;37131;42.694;23.350;2022-09-13T07:16:27;95347.66;;;16.41;66.15
51083;BME280;37131;42.694;23.350;2022-09-13T07:18:54;95337.97;;;16.57;66.60
51083;BME280;37131;42.694;23.350;2022-09-13T07:21:20;95314.81;;;16.54;64.99
51083;BME280;37131;42.694;23.350;2022-09-13T07:23:46;95337.94;;;16.47;65.36
51083;BME280;37131;42.694;23.350;2022-09-13T07:26:12;95341.91;;;16.55;65.26
51083;BME280;37131;42.694;23.350;2022-09-13T07:28:40;95343.28;;;16.73;64.45
51083;BME280;37131;42.694;23.350;2022-09-13T07:31:10;95350.38;;;16.72;63.98
51083;BME280;37131;42.694;23.350;2022-09-13T07:33:37;95343.34;;;16.98;62.72
51083;BME280;37131;42.694;23.350;2022-09-13T07:36:04;95350.72;;;16.91;63.10
51083;BME280;37131;42.694;23.350;2022-09-13T07:38:41;95343.56;;;16.87;62.54
51083;BME280;37131;42.694;23.350;2022-09-13T07:41:12;95348.88;;;17.12;64.57
51083;BME280;37131;42.694;23.350;2022-09-13T07:43:38;95341.50;;;17.19;62.56
51083;BME280;37131;42.694;23.350;2022-09-13T07:46:06;95349.41;;;17.50;61.83
51083;BME280;37131;42.694;23.350;2022-09-13T07:48:34;95340.19;;;17.43;60.67
51083;BME280;37131;42.694;23.350;2022-09-13T07:51:08;95338.63;;;17.31;59.48
51083;BME280;37131;42.694;23.350;2022-09-13T07:53:35;95348.63;;;17.55;60.29
51083;BME280;37131;42.694;23.350;2022-09-13T07:56:12;95352.56;;;17.68;60.07
51083;BME280;37131;42.694;23.350;2022-09-13T07:58:39;95358.63;;;17.58;57.86
51083;BME280;37131;42.694;23.350;2022-09-13T08:01:17;95350.66;;;17.89;55.58
51083;BME280;37131;42.694;23.350;2022-09-13T08:03:44;95348.34;;;17.62;54.26
51083;BME280;37131;42.694;23.350;2022-09-13T08:06:14;95346.50;;;17.67;56.67
51083;BME280;37131;42.694;23.350;2022-09-13T08:08:39;95339.13;;;17.64;56.86
51083;BME280;37131;42.694;23.350;2022-09-13T08:11:05;95332.25;;;17.68;54.29
51083;BME280;37131;42.694;23.350;2022-09-13T08:13:30;95343.06;;;17.93;53.26
51083;BME280;37131;42.694;23.350;2022-09-13T08:16:05;95321.09;;;18.08;53.27
51083;BME280;37131;42.694;23.350;2022-09-13T08:18:31;95347.00;;;17.95;55.02
51083;BME280;37131;42.694;23.350;2022-09-13T08:20:58;95287.66;;;17.77;53.19
51083;BME280;37131;42.694;23.350;2022-09-13T08:23:24;95341.88;;;18.30;55.50
51083;BME280;37131;42.694;23.350;2022-09-13T08:25:50;95338.88;;;18.52;52.39
51083;BME280;37131;42.694;23.350;2022-09-13T08:28:17;95337.28;;;18.56;51.72
51083;BME280;37131;42.694;23.350;2022-09-13T08:30:45;95332.81;;;18.46;50.54
51083;BME280;37131;42.694;23.350;2022-09-13T08:33:11;95299.75;;;18.04;50.55
51083;BME280;37131;42.694;23.350;2022-09-13T08:35:37;95336.75;;;18.54;50.93
51083;BME280;37131;42.694;23.350;2022-09-13T08:38:04;95327.59;;;18.36;51.41
51083;BME280;37131;42.694;23.350;2022-09-13T08:40:32;95323.25;;;18.61;51.00
51083;BME280;37131;42.694;23.350;2022-09-13T08:43:26;95324.66;;;18.92;50.42
51083;BME280;37131;42.694;23.350;2022-09-13T08:46:21;95323.88;;;18.92;48.95
51083;BME280;37131;42.694;23.350;2022-09-13T08:48:51;95315.50;;;18.74;47.97
51083;BME280;37131;42.694;23.350;2022-09-13T08:51:31;95303.72;;;18.56;47.35
51083;BME280;37131;42.694;23.350;2022-09-13T08:53:57;95317.66;;;18.67;48.33
51083;BME280;37131;42.694;23.350;2022-09-13T09:02:08;95307.91;;;18.68;48.52
51083;BME280;37131;42.694;23.350;2022-09-13T09:04:49;95307.38;;;19.10;48.23
51083;BME280;37131;42.694;23.350;2022-09-13T09:07:25;95316.03;;;19.16;47.46
51083;BME280;37131;42.694;23.350;2022-09-13T09:10:02;95297.84;;;19.09;44.39
51083;BME280;37131;42.694;23.350;2022-09-13T09:13:01;95330.06;;;19.46;46.00
51083;BME280;37131;42.694;23.350;2022-09-13T09:15:26;95316.78;;;19.22;44.45
51083;BME280;37131;42.694;23.350;2022-09-13T09:20:23;95318.84;;;19.25;44.86
51083;BME280;37131;42.694;23.350;2022-09-13T09:22:51;95324.03;;;19.06;45.47
51083;BME280;37131;42.694;23.350;2022-09-13T09:25:19;95279.34;;;19.09;46.04
51083;BME280;37131;42.694;23.350;2022-09-13T09:27:46;95312.91;;;19.43;44.45
51083;BME280;37131;42.694;23.350;2022-09-13T09:30:12;95318.88;;;19.54;45.50
51083;BME280;37131;42.694;23.350;2022-09-13T09:40:43;95308.66;;;19.42;45.00
51083;BME280;37131;42.694;23.350;2022-09-13T09:43:32;95284.00;;;19.76;42.92
51083;BME280;37131;42.694;23.350;2022-09-13T09:46:02;95293.38;;;19.93;42.05
51083;BME280;37131;42.694;23.350;2022-09-13T09:48:33;95295.44;;;20.20;44.58
51083;BME280;37131;42.694;23.350;2022-09-13T09:51:04;95286.44;;;20.40;44.51
51083;BME280;37131;42.694;23.350;2022-09-13T09:53:33;95248.59;;;20.40;42.29
51083;BME280;37131;42.694;23.350;2022-09-13T09:58:45;95279.25;;;20.84;40.72
51083;BME280;37131;42.694;23.350;2022-09-13T10:04:02;95269.63;;;20.31;42.76
51083;BME280;37131;42.694;23.350;2022-09-13T10:06:29;95273.00;;;20.37;42.92
51083;BME280;37131;42.694;23.350;2022-09-13T10:09:01;95273.56;;;20.33;41.87
51083;BME280;37131;42.694;23.350;2022-09-13T10:11:57;95262.13;;;20.57;41.45
51083;BME280;37131;42.694;23.350;2022-09-13T10:14:42;95257.63;;;20.77;42.30
51083;BME280;37131;42.694;23.350;2022-09-13T10:17:16;95255.63;;;20.88;40.43
51083;BME280;37131;42.694;23.350;2022-09-13T10:20:41;95251.00;;;20.93;39.99
51083;BME280;37131;42.694;23.350;2022-09-13T10:23:10;95257.66;;;21.10;40.13
51083;BME280;37131;42.694;23.350;2022-09-13T10:25:37;95255.50;;;21.26;39.21
51083;BME280;37131;42.694;23.350;2022-09-13T10:28:04;95209.72;;;21.06;39.63
51083;BME280;37131;42.694;23.350;2022-09-13T10:30:44;95250.03;;;21.36;41.55
51083;BME280;37131;42.694;23.350;2022-09-13T10:35:48;95239.63;;;21.40;39.89
51083;BME280;37131;42.694;23.350;2022-09-13T10:38:29;95249.31;;;21.63;40.25
51083;BME280;37131;42.694;23.350;2022-09-13T10:40:55;95247.38;;;21.36;40.27
51083;BME280;37131;42.694;23.350;2022-09-13T10:43:23;95245.31;;;21.33;38.60
51083;BME280;37131;42.694;23.350;2022-09-13T10:45:50;95231.94;;;21.24;39.97
51083;BME280;37131;42.694;23.350;2022-09-13T10:48:18;95231.28;;;21.32;40.27
51083;BME280;37131;42.694;23.350;2022-09-13T10:51:04;95220.91;;;21.64;40.08
51083;BME280;37131;42.694;23.350;2022-09-13T10:53:40;95218.66;;;21.71;40.40
51083;BME280;37131;42.694;23.350;2022-09-13T10:56:22;95223.97;;;21.71;40.30
51083;BME280;37131;42.694;23.350;2022-09-13T10:58:49;95172.44;;;21.30;39.85
51083;BME280;37131;42.694;23.350;2022-09-13T11:01:26;95217.59;;;21.72;41.24
51083;BME280;37131;42.694;23.350;2022-09-13T11:04:21;95220.44;;;21.89;38.89
51083;BME280;37131;42.694;23.350;2022-09-13T11:12:39;95223.81;;;21.34;39.16
51083;BME280;37131;42.694;23.350;2022-09-13T11:21:17;95203.03;;;21.69;39.94
51083;BME280;37131;42.694;23.350;2022-09-13T11:26:29;95204.81;;;21.60;38.31
51083;BME280;37131;42.694;23.350;2022-09-13T11:31:51;95202.66;;;21.76;37.68
51083;BME280;37131;42.694;23.350;2022-09-13T11:37:59;95185.13;;;21.61;38.66
51083;BME280;37131;42.694;23.350;2022-09-13T11:52:08;95154.00;;;21.53;39.68
51083;BME280;37131;42.694;23.350;2022-09-13T11:55:33;95153.38;;;21.70;37.28
51083;BME280;37131;42.694;23.350;2022-09-13T11:57:48;95150.28;;;21.54;37.21
51083;BME280;37131;42.694;23.350;2022-09-13T12:02:54;95124.13;;;21.19;36.70
51083;BME280;37131;42.694;23.350;2022-09-13T12:05:26;95192.13;;;21.57;36.03
51083;BME280;37131;42.694;23.350;2022-09-13T12:08:11;95183.47;;;21.79;38.14
51083;BME280;37131;42.694;23.350;2022-09-13T12:10:57;95182.97;;;21.91;38.36
51083;BME280;37131;42.694;23.350;2022-09-13T12:13:30;95194.25;;;21.97;38.70
51083;BME280;37131;42.694;23.350;2022-09-13T12:16:02;95158.00;;;21.78;36.66
51083;BME280;37131;42.694;23.350;2022-09-13T12:18:38;95187.69;;;21.94;36.41
51083;BME280;37131;42.694;23.350;2022-09-13T12:21:11;95176.38;;;21.88;36.55
51083;BME280;37131;42.694;23.350;2022-09-13T12:23:48;95120.97;;;21.73;35.78
51083;BME280;37131;42.694;23.350;2022-09-13T12:26:42;95178.84;;;22.35;35.62
51083;BME280;37131;42.694;23.350;2022-09-13T12:29:15;95167.09;;;22.50;36.34
51083;BME280;37131;42.694;23.350;2022-09-13T12:31:42;95173.84;;;22.56;35.01
51083;BME280;37131;42.694;23.350;2022-09-13T12:34:13;95182.13;;;22.32;34.93
51083;BME280;37131;42.694;23.350;2022-09-13T12:45:01;95167.19;;;23.22;33.02
51083;BME280;37131;42.694;23.350;2022-09-13T12:53:57;95181.34;;;22.54;35.27
51083;BME280;37131;42.694;23.350;2022-09-13T12:59:24;95186.28;;;22.47;36.00
51083;BME280;37131;42.694;23.350;2022-09-13T13:01:53;95181.69;;;22.62;36.28
51083;BME280;37131;42.694;23.350;2022-09-13T13:04:21;95103.13;;;22.47;35.23
51083;BME280;37131;42.694;23.350;2022-09-13T13:07:04;95181.69;;;22.84;34.62
51083;BME280;37131;42.694;23.350;2022-09-13T13:09:38;95178.41;;;23.10;34.21
51083;BME280;37131;42.694;23.350;2022-09-13T13:12:08;95112.16;;;23.31;34.40
51083;BME280;37131;42.694;23.350;2022-09-13T13:20:00;95169.66;;;24.25;32.98
51083;BME280;37131;42.694;23.350;2022-09-13T13:25:37;95170.16;;;23.60;34.34
51083;BME280;37131;42.694;23.350;2022-09-13T13:31:07;95179.38;;;22.91;34.16
51083;BME280;37131;42.694;23.350;2022-09-13T13:33:46;95201.25;;;21.93;37.99
51083;BME280;37131;42.694;23.350;2022-09-13T13:36:23;95179.03;;;21.75;37.40
51083;BME280;37131;42.694;23.350;2022-09-13T13:38:52;95180.13;;;21.60;36.76
51083;BME280;37131;42.694;23.350;2022-09-13T13:46:40;95196.63;;;21.98;35.27
51083;BME280;37131;42.694;23.350;2022-09-13T13:57:23;95184.84;;;21.77;37.78
51083;BME280;37131;42.694;23.350;2022-09-13T14:00:14;95160.94;;;21.49;36.53
51083;BME280;37131;42.694;23.350;2022-09-13T14:10:58;95197.59;;;21.75;37.79
51083;BME280;37131;42.694;23.350;2022-09-13T14:13:45;95150.16;;;21.17;37.46
51083;BME280;37131;42.694;23.350;2022-09-13T14:16:27;95188.09;;;21.60;37.47
51083;BME280;37131;42.694;23.350;2022-09-13T14:21:37;95206.00;;;21.07;37.27
51083;BME280;37131;42.694;23.350;2022-09-13T14:24:22;95205.66;;;21.28;38.15
51083;BME280;37131;42.694;23.350;2022-09-13T14:26:58;95208.28;;;21.28;37.69
51083;BME280;37131;42.694;23.350;2022-09-13T14:29:25;95206.00;;;21.21;39.04
51083;BME280;37131;42.694;23.350;2022-09-13T14:31:54;95201.00;;;21.19;38.27
51083;BME280;37131;42.694;23.350;2022-09-13T14:34:30;95171.63;;;21.02;37.52
51083;BME280;37131;42.694;23.350;2022-09-13T14:37:02;95179.88;;;21.00;38.84
51083;BME280;37131;42.694;23.350;2022-09-13T14:39:28;95215.25;;;21.24;37.93
51083;BME280;37131;42.694;23.350;2022-09-13T14:42:12;95214.06;;;21.16;37.84
51083;BME280;37131;42.694;23.350;2022-09-13T14:44:43;95215.03;;;21.06;38.11
51083;BME280;37131;42.694;23.350;2022-09-13T14:47:21;95197.34;;;21.01;38.47
51083;BME280;37131;42.694;23.350;2022-09-13T14:49:59;95209.88;;;20.96;38.30
51083;BME280;37131;42.694;23.350;2022-09-13T14:55:02;95200.28;;;21.00;38.73
51083;BME280;37131;42.694;23.350;2022-09-13T14:57:33;95206.25;;;20.92;38.71
51083;BME280;37131;42.694;23.350;2022-09-13T15:00:05;95207.34;;;20.91;37.39
51083;BME280;37131;42.694;23.350;2022-09-13T15:02:37;95160.84;;;20.46;37.84
51083;BME280;37131;42.694;23.350;2022-09-13T15:05:07;95190.53;;;20.62;39.63
51083;BME280;37131;42.694;23.350;2022-09-13T15:07:38;95180.78;;;20.58;38.50
51083;BME280;37131;42.694;23.350;2022-09-13T15:10:30;95218.09;;;20.80;37.30
51083;BME280;37131;42.694;23.350;2022-09-13T15:25:52;95219.47;;;20.40;38.32
51083;BME280;37131;42.694;23.350;2022-09-13T15:31:33;95212.53;;;20.25;40.02
51083;BME280;37131;42.694;23.350;2022-09-13T15:36:47;95213.75;;;20.32;39.32
51083;BME280;37131;42.694;23.350;2022-09-13T15:39:20;95204.78;;;20.28;39.77
51083;BME280;37131;42.694;23.350;2022-09-13T15:41:54;95213.75;;;20.32;40.58
51083;BME280;37131;42.694;23.350;2022-09-13T15:44:20;95215.19;;;20.25;38.78
51083;BME280;37131;42.694;23.350;2022-09-13T15:46:51;95219.41;;;20.26;40.18
51083;BME280;37131;42.694;23.350;2022-09-13T15:49:24;95183.78;;;19.99;38.95
51083;BME280;37131;42.694;23.350;2022-09-13T15:51:56;95222.84;;;20.26;38.58
51083;BME280;37131;42.694;23.350;2022-09-13T15:54:25;95217.19;;;20.14;39.10
51083;BME280;37131;42.694;23.350;2022-09-13T15:56:51;95177.47;;;19.95;40.11
51083;BME280;37131;42.694;23.350;2022-09-13T15:59:19;95221.66;;;20.13;40.40
51083;BME280;37131;42.694;23.350;2022-09-13T16:01:46;95238.50;;;20.04;38.46
51083;BME280;37131;42.694;23.350;2022-09-13T16:04:12;95234.25;;;20.03;39.73
51083;BME280;37131;42.694;23.350;2022-09-13T16:06:38;95230.88;;;19.97;39.52
51083;BME280;37131;42.694;23.350;2022-09-13T16:09:20;95191.63;;;19.61;39.50
51083;BME280;37131;42.694;23.350;2022-09-13T16:11:46;95243.66;;;19.90;41.37
51083;BME280;37131;42.694;23.350;2022-09-13T16:14:13;95196.25;;;19.69;39.87